Time;durP1;ratioP1;P1;durP2;ratioP2;P2;SDS_P1;SDS_P2;PMS_P1;PMS_P2;Temp;Humidity;BMP_temperature;BMP_pressure;BME280_temperature;BME280_humidity;BME280_pressure;Samples;Min_cycle;Max_cycle;Signal;HPM_P1;HPM_P2
2022/02/27 00:01:59;;;;;;;0.70;0.70;;;;;;;5.53;60.98;102298.09;103647;1274;138265;-67
2022/02/27 00:04:27;;;;;;;0.80;0.80;;;;;;;5.48;61.02;102296.41;103715;1275;95654;-66
2022/02/27 00:06:55;;;;;;;0.80;0.80;;;;;;;5.51;61.01;102295.05;103637;1274;138792;-67
2022/02/27 00:09:23;;;;;;;0.90;0.90;;;;;;;5.52;60.88;102297.18;103744;1274;99321;-66
2022/02/27 00:11:51;;;;;;;0.80;0.80;;;;;;;5.54;61.03;102302.36;103716;1274;108792;-65
2022/02/27 00:14:19;;;;;;;0.80;0.80;;;;;;;5.52;61.05;102303.17;103612;1274;137995;-66
2022/02/27 00:16:46;;;;;;;0.80;0.80;;;;;;;5.51;61.12;102304.91;103777;1274;96948;-67
2022/02/27 00:19:15;;;;;;;0.80;0.80;;;;;;;5.51;61.11;102301.91;103665;1274;139175;-66
2022/02/27 00:21:44;;;;;;;0.80;0.80;;;;;;;5.57;60.88;102302.58;103739;1274;99634;-65
2022/02/27 00:24:14;;;;;;;0.80;0.80;;;;;;;5.59;61.05;102305.27;103638;1274;140320;-66
2022/02/27 00:26:41;;;;;;;0.70;0.70;;;;;;;5.56;61.19;102314.20;103498;1274;96517;-66
2022/02/27 00:29:09;;;;;;;0.80;0.80;;;;;;;5.62;60.80;102316.46;103802;1274;95143;-67
2022/02/27 00:31:37;;;;;;;0.90;0.90;;;;;;;5.58;60.98;102316.54;103626;1274;139731;-66
2022/02/27 00:34:05;;;;;;;0.80;0.80;;;;;;;5.58;61.18;102321.65;103729;1274;98445;-66
2022/02/27 00:36:34;;;;;;;0.80;0.80;;;;;;;5.59;61.25;102323.60;103624;1274;139965;-67
2022/02/27 00:39:02;;;;;;;0.80;0.80;;;;;;;5.59;61.13;102326.42;103708;1274;95300;-66
2022/02/27 00:41:30;;;;;;;0.80;0.80;;;;;;;5.51;61.39;102322.53;103771;1274;95298;-67
2022/02/27 00:43:59;;;;;;;0.80;0.80;;;;;;;5.50;61.62;102319.33;103624;1274;138311;-64
2022/02/27 00:46:27;;;;;;;0.70;0.70;;;;;;;5.51;61.67;102317.42;104085;1274;100377;-68
2022/02/27 00:48:56;;;;;;;0.70;0.70;;;;;;;5.47;61.72;102316.10;103501;1274;138528;-66
2022/02/27 00:51:24;;;;;;;0.80;0.80;;;;;;;5.51;61.58;102319.70;103754;1274;95604;-66
2022/02/27 00:53:52;;;;;;;0.80;0.80;;;;;;;5.58;61.54;102322.35;103735;1274;95655;-64
2022/02/27 00:56:19;;;;;;;0.80;0.80;;;;;;;5.65;61.29;102319.89;103597;1274;138552;-65
2022/02/27 00:58:50;;;;;;;0.80;0.80;;;;;;;5.68;61.24;102317.50;103736;1274;99727;-66
2022/02/27 01:01:18;;;;;;;0.80;0.80;;;;;;;5.63;61.41;102320.36;103637;1274;139337;-66
2022/02/27 01:03:46;;;;;;;0.80;0.80;;;;;;;5.61;61.26;102319.61;103703;1274;95698;-66
2022/02/27 01:06:16;;;;;;;0.90;0.90;;;;;;;5.64;61.02;102317.76;103601;1274;139652;-66
2022/02/27 01:08:44;;;;;;;0.80;0.80;;;;;;;5.63;61.24;102318.94;103675;1274;109722;-66
2022/02/27 01:11:12;;;;;;;0.90;0.90;;;;;;;5.62;61.17;102328.26;104161;1274;99439;-66
2022/02/27 01:13:40;;;;;;;1.00;1.00;;;;;;;5.59;61.13;102326.59;103648;1274;139425;-66
2022/02/27 01:16:08;;;;;;;0.80;0.80;;;;;;;5.49;61.43;102325.84;103759;1274;95225;-66
2022/02/27 01:18:36;;;;;;;0.80;0.80;;;;;;;5.46;61.52;102325.73;103941;1274;138638;-66
2022/02/27 01:21:05;;;;;;;0.90;0.90;;;;;;;5.40;61.74;102322.80;103697;1274;109442;-67
2022/02/27 01:23:33;;;;;;;0.90;0.90;;;;;;;5.35;61.87;102325.98;103747;1274;99539;-67
2022/02/27 01:26:00;;;;;;;0.80;0.80;;;;;;;5.24;62.20;102325.17;103603;1274;138752;-66
2022/02/27 01:28:28;;;;;;;0.90;0.90;;;;;;;5.21;62.42;102323.50;103767;1274;95255;-66
2022/02/27 01:30:57;;;;;;;0.90;0.90;;;;;;;5.21;62.44;102314.17;103672;1274;139997;-69
2022/02/27 01:33:24;;;;;;;0.80;0.80;;;;;;;5.26;62.42;102315.53;103998;1274;109833;-66
2022/02/27 01:35:52;;;;;;;0.80;0.80;;;;;;;5.26;62.14;102314.11;103740;1274;99434;-67
2022/02/27 01:38:20;;;;;;;0.80;0.80;;;;;;;5.26;62.09;102315.89;103579;1274;139678;-66
2022/02/27 01:40:48;;;;;;;0.70;0.70;;;;;;;5.30;62.08;102317.41;103738;1274;96712;-66
2022/02/27 01:43:16;;;;;;;0.80;0.80;;;;;;;5.31;62.15;102312.49;103534;1274;139962;-66
2022/02/27 01:45:43;;;;;;;0.80;0.80;;;;;;;5.31;62.04;102315.33;103739;1274;110857;-66
2022/02/27 01:48:11;;;;;;;0.80;0.80;;;;;;;5.34;61.99;102313.80;103683;1274;99465;-66
2022/02/27 01:50:39;;;;;;;0.80;0.80;;;;;;;5.40;61.79;102310.77;103703;1274;138288;-68
2022/02/27 01:53:07;;;;;;;0.90;0.90;;;;;;;5.46;61.62;102309.36;103710;1274;95319;-63
2022/02/27 01:55:35;;;;;;;0.80;0.80;;;;;;;5.35;61.63;102310.67;103300;1277;138369;-66
2022/02/27 01:58:03;;;;;;;0.80;0.80;;;;;;;5.27;61.74;102315.23;103749;1274;110276;-67
2022/02/27 02:00:31;;;;;;;0.80;0.80;;;;;;;5.26;61.87;102316.95;103732;1274;140748;-65
2022/02/27 02:03:00;;;;;;;0.80;0.80;;;;;;;5.35;61.95;102313.48;103582;1277;108939;-66
2022/02/27 02:05:28;;;;;;;1.00;1.00;;;;;;;5.41;61.62;102315.05;103754;1274;95710;-66
2022/02/27 02:07:56;;;;;;;0.90;0.90;;;;;;;5.47;61.29;102309.73;103628;1274;140058;-67
2022/02/27 02:10:24;;;;;;;0.80;0.80;;;;;;;5.49;61.19;102318.43;103759;1273;109717;-67
2022/02/27 02:12:56;;;;;;;0.90;0.90;;;;;;;5.35;61.36;102317.36;103639;1274;138817;-66
2022/02/27 02:15:24;;;;;;;0.80;0.80;;;;;;;5.39;61.54;102316.59;103716;1274;110928;-66
2022/02/27 02:17:52;;;;;;;0.80;0.80;;;;;;;5.43;61.34;102316.66;103628;1275;95527;-67
2022/02/27 02:20:20;;;;;;;0.90;0.90;;;;;;;5.46;61.15;102316.05;103634;1274;141237;-66
2022/02/27 02:22:58;;;;;;;0.90;0.90;;;;;;;5.44;60.94;102317.05;103766;1275;109769;-66
2022/02/27 02:25:26;;;;;;;0.80;0.80;;;;;;;5.42;60.96;102313.48;103599;1274;139949;-66
2022/02/27 02:27:57;;;;;;;0.80;0.80;;;;;;;5.34;61.33;102315.20;103718;1272;108769;-67
2022/02/27 02:30:25;;;;;;;0.90;0.90;;;;;;;5.29;61.52;102313.52;103602;1274;138942;-67
2022/02/27 02:32:56;;;;;;;0.80;0.80;;;;;;;5.30;61.43;102309.66;103757;1274;95551;-67
2022/02/27 02:35:26;;;;;;;0.80;0.80;;;;;;;5.21;61.59;102312.95;103684;1274;109808;-66
2022/02/27 02:37:55;;;;;;;0.90;0.90;;;;;;;5.19;61.80;102313.23;103759;1274;138659;-67
2022/02/27 02:40:24;;;;;;;0.80;0.80;;;;;;;5.21;61.67;102314.16;103744;1274;109335;-67
2022/02/27 02:42:55;;;;;;;1.00;1.00;;;;;;;5.20;61.64;102313.27;103560;1274;140016;-68
2022/02/27 02:45:24;;;;;;;0.80;0.80;;;;;;;5.11;61.92;102312.15;103736;1274;95124;-66
2022/02/27 02:47:55;;;;;;;0.80;0.80;;;;;;;5.15;61.83;102313.33;103629;1274;109704;-67
2022/02/27 02:50:26;;;;;;;0.80;0.80;;;;;;;5.18;61.62;102313.07;103589;1274;139189;-68
2022/02/27 02:52:54;;;;;;;0.90;0.90;;;;;;;5.08;61.66;102314.73;103623;1275;109811;-66
2022/02/27 02:55:23;;;;;;;0.80;0.80;;;;;;;5.01;62.02;102318.77;103712;1274;137939;-66
2022/02/27 02:57:51;;;;;;;0.80;0.80;;;;;;;5.01;61.90;102326.83;103703;1274;95954;-67
2022/02/27 03:00:19;;;;;;;0.80;0.80;;;;;;;5.06;61.88;102329.61;103618;1274;139117;-67
2022/02/27 03:02:48;;;;;;;0.80;0.80;;;;;;;5.06;61.93;102336.29;103743;1274;99625;-68
2022/02/27 03:05:17;;;;;;;0.90;0.90;;;;;;;5.06;61.80;102340.00;103929;1274;108805;-67
2022/02/27 03:07:45;;;;;;;0.90;0.90;;;;;;;5.07;61.72;102338.98;103437;1274;139737;-68
2022/02/27 03:10:12;;;;;;;0.90;0.90;;;;;;;5.06;61.54;102341.24;103759;1274;95130;-67
2022/02/27 03:12:40;;;;;;;0.90;0.90;;;;;;;4.96;61.71;102341.30;103648;1274;137974;-68
2022/02/27 03:15:08;;;;;;;1.00;1.00;;;;;;;4.85;61.96;102342.42;103754;1274;99422;-66
2022/02/27 03:17:36;;;;;;;0.90;0.90;;;;;;;4.74;62.18;102341.05;103877;1274;109312;-67
2022/02/27 03:20:07;;;;;;;0.90;0.90;;;;;;;4.74;62.23;102338.74;103633;1274;139182;-68
2022/02/27 03:22:35;;;;;;;0.90;0.90;;;;;;;4.64;62.36;102339.52;103937;1274;95653;-68
2022/02/27 03:25:03;;;;;;;0.80;0.80;;;;;;;4.53;62.83;102343.23;103627;1273;139207;-67
2022/02/27 03:27:31;;;;;;;0.90;0.90;;;;;;;4.41;63.12;102346.39;103747;1274;98942;-68
2022/02/27 03:29:59;;;;;;;1.00;1.00;;;;;;;4.41;63.37;102351.13;103715;1273;109461;-68
2022/02/27 03:32:26;;;;;;;1.00;1.00;;;;;;;4.41;63.26;102356.25;103630;1274;138690;-67
2022/02/27 03:34:54;;;;;;;0.90;0.90;;;;;;;4.36;63.39;102363.30;103726;1274;96393;-68
2022/02/27 03:37:22;;;;;;;1.20;1.20;;;;;;;4.23;63.73;102366.95;103616;1274;139700;-68
2022/02/27 03:39:50;;;;;;;1.00;1.00;;;;;;;4.10;63.96;102365.13;103695;1274;99405;-66
2022/02/27 03:42:18;;;;;;;1.00;1.00;;;;;;;4.10;64.10;102371.29;103635;1274;139615;-67
2022/02/27 03:44:46;;;;;;;0.90;0.90;;;;;;;4.07;64.08;102370.45;103730;1273;96182;-67
2022/02/27 03:47:14;;;;;;;1.20;1.20;;;;;;;4.10;64.16;102368.10;103678;1274;95183;-66
2022/02/27 03:49:42;;;;;;;0.90;0.90;;;;;;;4.14;63.93;102370.55;103504;1274;139771;-68
2022/02/27 03:52:10;;;;;;;1.20;1.20;;;;;;;4.20;63.62;102368.43;103720;1272;99403;-68
2022/02/27 03:54:38;;;;;;;1.00;1.00;;;;;;;4.23;63.79;102369.76;103596;1273;139086;-67
2022/02/27 03:57:06;;;;;;;1.00;1.00;;;;;;;4.28;63.59;102369.73;103737;1272;95279;-68
2022/02/27 03:59:33;;;;;;;1.00;1.00;;;;;;;4.33;63.59;102374.11;103751;1274;96024;-68
2022/02/27 04:02:01;;;;;;;0.90;0.90;;;;;;;4.38;63.25;102371.27;103619;1274;137709;-67
2022/02/27 04:04:29;;;;;;;1.00;1.00;;;;;;;4.38;63.20;102368.98;103728;1274;99329;-67
2022/02/27 04:06:57;;;;;;;1.10;1.10;;;;;;;4.42;63.09;102366.30;103693;1274;138847;-67
2022/02/27 04:09:25;;;;;;;0.90;0.90;;;;;;;4.37;63.14;102371.77;103772;1274;95906;-67
2022/02/27 04:11:53;;;;;;;1.00;1.00;;;;;;;4.39;63.14;102373.41;103788;1274;96643;-68
2022/02/27 04:14:21;;;;;;;1.00;1.00;;;;;;;4.38;63.28;102372.32;103817;1274;139168;-67
2022/02/27 04:16:49;;;;;;;0.90;0.90;;;;;;;4.39;63.20;102368.50;103753;1274;98792;-68
2022/02/27 04:19:17;;;;;;;0.90;0.90;;;;;;;4.44;63.29;102369.16;103627;1274;138723;-68
2022/02/27 04:21:45;;;;;;;0.90;0.90;;;;;;;4.41;63.08;102368.91;103626;1274;95651;-65
2022/02/27 04:24:13;;;;;;;1.00;1.00;;;;;;;4.23;63.33;102369.95;103706;1274;95646;-66
2022/02/27 04:26:41;;;;;;;0.90;0.90;;;;;;;4.12;63.84;102372.57;103569;1274;138302;-67
2022/02/27 04:29:09;;;;;;;1.00;1.00;;;;;;;4.10;64.06;102371.64;103657;1276;98385;-67
2022/02/27 04:31:37;;;;;;;1.00;1.00;;;;;;;4.13;64.00;102371.21;103685;1274;139478;-67
2022/02/27 04:34:05;;;;;;;1.00;1.00;;;;;;;4.18;63.93;102369.97;103689;1274;95624;-67
2022/02/27 04:36:32;;;;;;;0.90;0.90;;;;;;;4.18;63.99;102368.73;103596;1274;139021;-67
2022/02/27 04:39:00;;;;;;;0.90;0.90;;;;;;;4.20;63.83;102375.11;103653;1274;109733;-65
2022/02/27 04:41:29;;;;;;;1.10;1.10;;;;;;;4.15;63.98;102374.27;103714;1274;98897;-66
2022/02/27 04:43:57;;;;;;;0.90;0.90;;;;;;;4.07;64.03;102370.83;103560;1274;138479;-68
2022/02/27 04:46:25;;;;;;;1.00;1.00;;;;;;;4.04;64.29;102371.98;103661;1274;95137;-67
2022/02/27 04:48:53;;;;;;;0.90;0.90;;;;;;;4.06;64.22;102372.23;103615;1274;137912;-67
2022/02/27 04:51:21;;;;;;;1.00;1.00;;;;;;;4.04;64.28;102374.41;103661;1273;109735;-66
2022/02/27 04:53:49;;;;;;;1.10;1.10;;;;;;;4.03;64.45;102375.09;103784;1274;99645;-68
2022/02/27 04:56:17;;;;;;;0.90;0.90;;;;;;;4.06;64.46;102373.59;103555;1274;139155;-67
2022/02/27 04:58:45;;;;;;;0.90;0.90;;;;;;;4.06;64.47;102378.69;103769;1274;95640;-67
2022/02/27 05:01:13;;;;;;;0.90;0.90;;;;;;;4.08;64.29;102380.52;103625;1274;138749;-67
2022/02/27 05:03:41;;;;;;;1.00;1.00;;;;;;;4.07;64.39;102388.07;103841;1274;109932;-67
2022/02/27 05:06:09;;;;;;;1.00;1.00;;;;;;;4.08;64.33;102388.25;103700;1274;100299;-68
2022/02/27 05:08:38;;;;;;;0.90;0.90;;;;;;;4.08;64.36;102400.39;103533;1274;138507;-68
2022/02/27 05:11:05;;;;;;;1.00;1.00;;;;;;;4.10;64.32;102402.57;103710;1274;95720;-67
2022/02/27 05:13:33;;;;;;;1.10;1.10;;;;;;;4.08;64.34;102408.66;103627;1274;137728;-68
2022/02/27 05:16:01;;;;;;;1.00;1.00;;;;;;;4.04;64.54;102411.67;103683;1274;111101;-65
2022/02/27 05:18:29;;;;;;;0.90;0.90;;;;;;;4.05;64.61;102414.71;103612;1274;140772;-68
2022/02/27 05:20:57;;;;;;;0.90;0.90;;;;;;;3.92;64.84;102416.56;103711;1274;108818;-67
2022/02/27 05:23:24;;;;;;;0.90;0.90;;;;;;;3.92;64.59;102416.05;103455;1276;95250;-67
2022/02/27 05:25:58;;;;;;;0.90;0.90;;;;;;;3.91;64.77;102420.22;103589;1274;137804;-67
2022/02/27 05:28:27;;;;;;;1.00;1.00;;;;;;;3.97;64.81;102423.77;103881;1274;109880;-68
2022/02/27 05:30:55;;;;;;;0.90;0.90;;;;;;;3.98;64.46;102429.08;103539;1274;140451;-67
2022/02/27 05:33:23;;;;;;;0.90;0.90;;;;;;;3.94;64.90;102429.81;103635;1275;108871;-68
2022/02/27 05:35:51;;;;;;;0.90;0.90;;;;;;;3.91;65.04;102427.95;103571;1276;95875;-68
2022/02/27 05:38:19;;;;;;;1.00;1.00;;;;;;;3.92;64.87;102428.86;103609;1274;137310;-66
2022/02/27 05:40:47;;;;;;;1.00;1.00;;;;;;;3.93;65.03;102426.09;103775;1274;109831;-65
2022/02/27 05:43:15;;;;;;;1.20;1.20;;;;;;;3.97;65.02;102429.55;103643;1274;139655;-65
2022/02/27 05:45:42;;;;;;;0.90;0.90;;;;;;;4.02;64.78;102428.33;103824;1274;108870;-67
2022/02/27 05:48:10;;;;;;;0.90;0.90;;;;;;;3.95;65.07;102425.83;103795;1274;96158;-67
2022/02/27 05:50:38;;;;;;;1.00;1.00;;;;;;;3.95;65.12;102424.23;103672;1274;138155;-68
2022/02/27 05:53:06;;;;;;;0.90;0.90;;;;;;;3.95;65.02;102422.65;103745;1274;109749;-68
2022/02/27 05:55:34;;;;;;;0.90;0.90;;;;;;;3.98;65.07;102426.78;103717;1272;138721;-65
2022/02/27 05:58:03;;;;;;;0.90;0.90;;;;;;;3.96;65.07;102429.36;103805;1274;107981;-67
2022/02/27 06:00:30;;;;;;;0.90;0.90;;;;;;;3.97;65.00;102427.45;103842;1274;139547;-68
2022/02/27 06:02:58;;;;;;;0.90;0.90;;;;;;;3.85;65.12;102428.44;103853;1274;95354;-68
2022/02/27 06:05:27;;;;;;;1.00;1.00;;;;;;;3.70;65.39;102427.06;103810;1271;109238;-68
2022/02/27 06:07:56;;;;;;;1.10;1.10;;;;;;;3.39;66.04;102428.98;103695;1274;140640;-67
2022/02/27 06:10:24;;;;;;;0.90;0.90;;;;;;;3.23;66.88;102429.41;103860;1274;108993;-67
2022/02/27 06:12:51;;;;;;;1.00;1.00;;;;;;;3.23;67.44;102432.08;103786;1272;138762;-66
2022/02/27 06:15:19;;;;;;;1.00;1.00;;;;;;;3.28;67.31;102438.39;103870;1274;95547;-67
2022/02/27 06:17:47;;;;;;;0.90;0.90;;;;;;;3.13;67.24;102434.52;103808;1273;110839;-67
2022/02/27 06:20:15;;;;;;;1.00;1.00;;;;;;;3.01;67.49;102440.57;103718;1274;138654;-67
2022/02/27 06:22:45;;;;;;;1.00;1.00;;;;;;;3.05;68.16;102439.48;103756;1272;108814;-67
2022/02/27 06:25:16;;;;;;;1.00;1.00;;;;;;;3.19;67.74;102441.59;103693;1274;139715;-67
2022/02/27 06:27:44;;;;;;;0.90;0.90;;;;;;;3.35;67.34;102446.73;104047;1274;95444;-66
2022/02/27 06:30:14;;;;;;;1.00;1.00;;;;;;;3.46;66.86;102449.57;103804;1274;110468;-68
2022/02/27 06:32:43;;;;;;;1.00;1.00;;;;;;;3.58;66.83;102449.48;104176;1271;139818;-68
2022/02/27 06:35:12;;;;;;;1.10;1.10;;;;;;;3.71;66.46;102455.36;106289;1271;108983;-67
2022/02/27 06:37:40;;;;;;;0.90;0.90;;;;;;;3.78;65.94;102456.67;103649;1274;139687;-68
2022/02/27 06:40:08;;;;;;;0.90;0.90;;;;;;;3.84;65.90;102464.10;103822;1274;95692;-68
2022/02/27 06:42:38;;;;;;;1.10;1.10;;;;;;;3.94;65.77;102467.93;103639;1274;137919;-66
2022/02/27 06:45:07;;;;;;;0.90;0.90;;;;;;;3.88;65.41;102463.53;103773;1274;98126;-67
2022/02/27 06:47:35;;;;;;;1.00;1.00;;;;;;;3.81;65.67;102463.63;104031;1273;108882;-67
2022/02/27 06:50:04;;;;;;;0.90;0.90;;;;;;;3.88;65.88;102466.34;103629;1273;140007;-67
2022/02/27 06:52:32;;;;;;;1.00;1.00;;;;;;;3.98;65.44;102466.70;103666;1273;96585;-67
2022/02/27 06:55:00;;;;;;;1.10;1.10;;;;;;;4.00;65.47;102467.28;103666;1272;139798;-68
2022/02/27 06:57:29;;;;;;;1.00;1.00;;;;;;;4.03;65.35;102477.06;103762;1274;99399;-67
2022/02/27 06:59:57;;;;;;;0.90;0.90;;;;;;;4.08;65.03;102470.56;103784;1274;108827;-66
2022/02/27 07:02:25;;;;;;;0.90;0.90;;;;;;;4.12;64.98;102476.80;103613;1273;138509;-67
2022/02/27 07:04:53;;;;;;;0.90;0.90;;;;;;;4.04;64.82;102479.21;103749;1274;95678;-67
2022/02/27 07:07:20;;;;;;;1.00;1.00;;;;;;;3.93;65.15;102481.98;103711;1274;139805;-67
2022/02/27 07:09:48;;;;;;;1.00;1.00;;;;;;;3.90;65.41;102486.10;103838;1274;98443;-68
2022/02/27 07:12:16;;;;;;;0.90;0.90;;;;;;;4.01;65.52;102486.30;103774;1274;109152;-67
2022/02/27 07:14:44;;;;;;;0.90;0.90;;;;;;;4.13;65.41;102483.73;103752;1274;137727;-67
2022/02/27 07:17:12;;;;;;;1.00;1.00;;;;;;;4.17;64.78;102480.86;103721;1272;95142;-66
2022/02/27 07:19:40;;;;;;;1.00;1.00;;;;;;;4.17;64.87;102477.52;103689;1271;139683;-67
2022/02/27 07:22:08;;;;;;;1.00;1.00;;;;;;;4.23;64.62;102482.81;103644;1274;99301;-66
2022/02/27 07:24:36;;;;;;;0.90;0.90;;;;;;;4.29;64.61;102485.84;103673;1274;138153;-67
2022/02/27 07:27:04;;;;;;;1.10;1.10;;;;;;;4.33;64.22;102491.40;103813;1273;95190;-66
2022/02/27 07:29:32;;;;;;;0.90;0.90;;;;;;;4.27;64.06;102487.87;103793;1272;95230;-67
2022/02/27 07:32:00;;;;;;;0.90;0.90;;;;;;;4.23;64.23;102494.06;103665;1272;138843;-69
2022/02/27 07:34:28;;;;;;;0.80;0.80;;;;;;;4.15;64.23;102496.45;103820;1273;99618;-67
2022/02/27 07:36:56;;;;;;;0.90;0.90;;;;;;;4.16;64.59;102492.45;103698;1274;138498;-67
2022/02/27 07:39:25;;;;;;;1.10;1.10;;;;;;;4.26;64.42;102492.58;103930;1274;95397;-67
2022/02/27 07:41:54;;;;;;;0.90;0.90;;;;;;;4.32;64.02;102493.50;103789;1272;95476;-68
2022/02/27 07:44:27;;;;;;;0.90;0.90;;;;;;;4.32;64.01;102495.63;103636;1272;139784;-66
2022/02/27 07:46:55;;;;;;;0.80;0.80;;;;;;;4.32;63.96;102494.73;104243;1271;99961;-68
2022/02/27 07:49:25;;;;;;;0.90;0.90;;;;;;;4.24;63.63;102494.28;103688;1272;139782;-68
2022/02/27 07:51:53;;;;;;;0.90;0.90;;;;;;;4.00;64.06;102500.34;103698;1273;95295;-67
2022/02/27 07:54:21;;;;;;;0.90;0.90;;;;;;;3.88;64.83;102497.80;103773;1274;95620;-70
2022/02/27 07:56:49;;;;;;;0.90;0.90;;;;;;;3.84;64.90;102499.23;103683;1274;138656;-68
2022/02/27 07:59:17;;;;;;;1.00;1.00;;;;;;;3.84;65.66;102500.10;103772;1271;99271;-68
2022/02/27 08:01:45;;;;;;;0.90;0.90;;;;;;;3.95;65.41;102500.17;103647;1273;138701;-67
2022/02/27 08:04:14;;;;;;;0.90;0.90;;;;;;;4.15;65.27;102498.73;103796;1272;95298;-68
2022/02/27 08:06:42;;;;;;;0.80;0.80;;;;;;;4.36;64.79;102496.06;103787;1271;138447;-67
2022/02/27 08:09:11;;;;;;;0.80;0.80;;;;;;;4.42;64.47;102493.98;103777;1274;109789;-67
2022/02/27 08:11:39;;;;;;;1.00;1.00;;;;;;;4.40;64.10;102497.98;103831;1274;99406;-68
2022/02/27 08:14:10;;;;;;;0.80;0.80;;;;;;;4.39;63.95;102494.93;103660;1272;140873;-67
2022/02/27 08:16:37;;;;;;;0.80;0.80;;;;;;;4.38;63.70;102500.36;103826;1274;95586;-68
2022/02/27 08:19:06;;;;;;;0.90;0.90;;;;;;;4.17;63.92;102500.02;103749;1274;137901;-67
2022/02/27 08:21:34;;;;;;;1.00;1.00;;;;;;;4.21;64.34;102501.89;103730;1272;109315;-67
2022/02/27 08:24:02;;;;;;;0.80;0.80;;;;;;;4.28;63.90;102499.52;103766;1274;99574;-67
2022/02/27 08:26:30;;;;;;;0.90;0.90;;;;;;;4.30;63.18;102497.81;103696;1274;138079;-67
2022/02/27 08:28:59;;;;;;;0.80;0.80;;;;;;;4.16;63.53;102495.24;103868;1272;95228;-67
2022/02/27 08:31:27;;;;;;;0.90;0.90;;;;;;;4.20;63.96;102494.33;103740;1274;139864;-68
2022/02/27 08:33:56;;;;;;;0.90;0.90;;;;;;;4.14;64.04;102501.85;103840;1274;109722;-67
2022/02/27 08:36:23;;;;;;;1.00;1.00;;;;;;;4.10;64.26;102502.61;103991;1274;99389;-67
2022/02/27 08:38:51;;;;;;;0.90;0.90;;;;;;;4.19;64.24;102498.52;103737;1272;138028;-68
2022/02/27 08:41:19;;;;;;;1.00;1.00;;;;;;;4.20;64.35;102498.55;103875;1273;96955;-68
2022/02/27 08:43:47;;;;;;;1.00;1.00;;;;;;;4.28;63.96;102494.79;103661;1273;137640;-68
2022/02/27 08:46:15;;;;;;;1.00;1.00;;;;;;;4.23;64.09;102491.60;103828;1274;110655;-67
2022/02/27 08:48:43;;;;;;;0.80;0.80;;;;;;;4.16;64.28;102489.97;103857;1274;140421;-68
2022/02/27 08:51:12;;;;;;;0.90;0.90;;;;;;;4.31;64.51;102490.46;103771;1274;108903;-67
2022/02/27 08:53:42;;;;;;;0.80;0.80;;;;;;;4.51;64.03;102486.71;103978;1272;95239;-68
2022/02/27 08:56:09;;;;;;;1.00;1.00;;;;;;;4.53;63.43;102484.32;103648;1274;139409;-67
2022/02/27 08:58:37;;;;;;;0.90;0.90;;;;;;;4.34;63.70;102489.53;103742;1273;109699;-67
2022/02/27 09:01:05;;;;;;;0.90;0.90;;;;;;;4.42;64.00;102485.89;103694;1273;140235;-67
2022/02/27 09:03:33;;;;;;;0.90;0.90;;;;;;;4.64;63.92;102481.67;103796;1274;108750;-69
2022/02/27 09:06:01;;;;;;;0.80;0.80;;;;;;;4.79;63.37;102480.02;103812;1274;95660;-68
2022/02/27 09:08:29;;;;;;;0.90;0.90;;;;;;;4.87;63.18;102483.45;103754;1274;138488;-69
2022/02/27 09:10:56;;;;;;;0.90;0.90;;;;;;;4.98;62.75;102486.27;103785;1274;109054;-69
2022/02/27 09:13:24;;;;;;;0.80;0.80;;;;;;;5.04;62.30;102487.83;103740;1274;138483;-68
2022/02/27 09:15:52;;;;;;;0.80;0.80;;;;;;;5.08;62.19;102489.52;103779;1274;108658;-68
2022/02/27 09:18:20;;;;;;;0.90;0.90;;;;;;;5.08;61.82;102488.67;103785;1272;97138;-68
2022/02/27 09:20:49;;;;;;;0.90;0.90;;;;;;;5.08;61.89;102491.45;103897;1274;137004;-68
2022/02/27 09:23:17;;;;;;;0.80;0.80;;;;;;;5.02;61.75;102490.77;103792;1271;109790;-68
2022/02/27 09:25:44;;;;;;;0.80;0.80;;;;;;;4.98;61.94;102489.25;103731;1271;139545;-66
2022/02/27 09:28:33;;;;;;;0.80;0.80;;;;;;;5.02;62.08;102487.61;103833;1272;109036;-66
2022/02/27 09:31:01;;;;;;;0.80;0.80;;;;;;;5.09;61.99;102492.89;103753;1272;138130;-68
2022/02/27 09:33:30;;;;;;;0.90;0.90;;;;;;;5.13;61.90;102485.80;103842;1274;95232;-69
2022/02/27 09:35:58;;;;;;;0.90;0.90;;;;;;;5.16;61.67;102486.97;103758;1272;110072;-68
2022/02/27 09:38:26;;;;;;;0.80;0.80;;;;;;;5.12;61.34;102482.62;103636;1274;138558;-66
2022/02/27 09:40:54;;;;;;;0.70;0.70;;;;;;;5.11;61.58;102479.61;103812;1272;108837;-70
2022/02/27 09:43:23;;;;;;;0.90;0.90;;;;;;;5.11;61.30;102485.95;103607;1274;138606;-67
2022/02/27 09:45:52;;;;;;;0.80;0.80;;;;;;;5.09;61.25;102486.77;103958;1274;95651;-67
2022/02/27 09:48:19;;;;;;;0.80;0.80;;;;;;;5.04;61.00;102487.49;103817;1273;109493;-68
2022/02/27 09:50:49;;;;;;;0.80;0.80;;;;;;;5.04;61.30;102491.69;103696;1274;138225;-68
2022/02/27 09:53:17;;;;;;;0.90;0.90;;;;;;;5.11;61.17;102491.92;103864;1274;108747;-66
2022/02/27 09:55:45;;;;;;;0.90;0.90;;;;;;;5.11;60.87;102493.33;103721;1272;138864;-69
2022/02/27 09:58:13;;;;;;;0.80;0.80;;;;;;;5.13;61.11;102489.52;103892;1272;95400;-68
2022/02/27 10:00:41;;;;;;;0.80;0.80;;;;;;;5.17;61.04;102492.65;103741;1272;139861;-69
2022/02/27 10:03:09;;;;;;;0.80;0.80;;;;;;;5.15;61.08;102489.21;103879;1274;97898;-67
2022/02/27 10:05:39;;;;;;;0.90;0.90;;;;;;;5.13;61.32;102489.16;103802;1274;108816;-67
2022/02/27 10:08:08;;;;;;;0.80;0.80;;;;;;;5.15;61.38;102484.13;103703;1271;138347;-69
2022/02/27 10:10:37;;;;;;;0.90;0.90;;;;;;;5.22;61.33;102482.19;103891;1272;95441;-68
2022/02/27 10:13:09;;;;;;;0.80;0.80;;;;;;;5.22;60.97;102476.92;103834;1272;138092;-68
2022/02/27 10:15:37;;;;;;;0.90;0.90;;;;;;;5.15;61.16;102477.61;103863;1271;99513;-68
2022/02/27 10:18:15;;;;;;;0.80;0.80;;;;;;;5.06;61.18;102478.38;103884;1272;108852;-67
2022/02/27 10:20:43;;;;;;;0.90;0.90;;;;;;;5.10;61.36;102477.27;103851;1272;139035;-67
2022/02/27 10:23:11;;;;;;;0.70;0.70;;;;;;;5.12;61.15;102476.82;103869;1274;95263;-67
2022/02/27 10:25:40;;;;;;;0.90;0.90;;;;;;;5.01;61.14;102476.83;103775;1271;139464;-66
2022/02/27 10:28:07;;;;;;;0.80;0.80;;;;;;;5.01;61.39;102476.49;103804;1271;100586;-67
2022/02/27 10:30:38;;;;;;;0.80;0.80;;;;;;;4.97;61.18;102477.43;103892;1272;138537;-66
2022/02/27 10:33:09;;;;;;;0.80;0.80;;;;;;;4.96;61.19;102477.40;103826;1271;95231;-67
2022/02/27 10:35:36;;;;;;;0.80;0.80;;;;;;;4.89;61.31;102480.67;103975;1271;95783;-70
2022/02/27 10:38:15;;;;;;;0.80;0.80;;;;;;;4.89;61.43;102476.98;103740;1272;137862;-66
2022/02/27 10:40:48;;;;;;;0.80;0.80;;;;;;;4.84;61.10;102483.36;103852;1271;99382;-68
2022/02/27 10:43:17;;;;;;;0.90;0.90;;;;;;;4.86;61.34;102481.31;103789;1271;139050;-68
2022/02/27 10:46:01;;;;;;;0.90;0.90;;;;;;;4.91;61.14;102475.31;103913;1271;95639;-68
2022/02/27 10:48:30;;;;;;;0.80;0.80;;;;;;;4.91;61.17;102476.54;103782;1272;138311;-67
2022/02/27 10:51:04;;;;;;;0.90;0.90;;;;;;;4.89;61.03;102472.24;103846;1272;109656;-68
2022/02/27 10:53:39;;;;;;;0.80;0.80;;;;;;;4.86;61.15;102474.60;103810;1271;99354;-68
2022/02/27 10:56:12;;;;;;;0.90;0.90;;;;;;;4.87;60.91;102475.00;104125;1271;138123;-68
2022/02/27 10:58:40;;;;;;;0.80;0.80;;;;;;;4.84;60.86;102472.63;103835;1272;95729;-70
2022/02/27 11:01:25;;;;;;;0.80;0.80;;;;;;;4.79;61.20;102473.88;103700;1272;139537;-70
2022/02/27 11:03:55;;;;;;;0.90;0.90;;;;;;;4.82;61.17;102467.45;104932;1271;109844;-69
2022/02/27 11:06:23;;;;;;;0.80;0.80;;;;;;;4.82;61.17;102462.89;103970;1271;99998;-66
2022/02/27 11:08:52;;;;;;;1.00;1.00;;;;;;;4.76;61.12;102458.28;103745;1272;137993;-69
2022/02/27 11:11:20;;;;;;;0.90;0.90;;;;;;;4.67;61.24;102454.51;103779;1274;95834;-68
2022/02/27 11:13:48;;;;;;;0.90;0.90;;;;;;;4.65;61.26;102454.61;103688;1272;138394;-67
2022/02/27 11:16:16;;;;;;;0.90;0.90;;;;;;;4.69;61.25;102455.98;103698;1274;109838;-68
2022/02/27 11:18:44;;;;;;;0.90;0.90;;;;;;;4.71;61.23;102457.27;104669;1273;138583;-67
2022/02/27 11:21:14;;;;;;;0.80;0.80;;;;;;;4.81;61.04;102458.28;103801;1274;108914;-67
2022/02/27 11:23:44;;;;;;;0.90;0.90;;;;;;;4.87;60.64;102457.23;104086;1274;95637;-65
2022/02/27 11:26:15;;;;;;;0.90;0.90;;;;;;;4.87;60.42;102453.52;103841;1271;137831;-66